Time;durP1;ratioP1;P1;durP2;ratioP2;P2;SDS_P1;SDS_P2;PMS_P1;PMS_P2;Temp;Humidity;BMP_temperature;BMP_pressure;BME280_temperature;BME280_humidity;BME280_pressure;Samples;Min_cycle;Max_cycle;Signal;HPM_P1;HPM_P2
2023/11/27 00:01:03;;;;;;;17.27;10.82;;;;;;;4.02;100.00;100758.84;5132308;28;20047;-47
2023/11/27 00:03:32;;;;;;;18.50;11.00;;;;;;;3.97;100.00;100760.81;5131292;28;20558;-49
2023/11/27 00:06:00;;;;;;;17.08;10.45;;;;;;;3.96;100.00;100748.69;5132364;28;20050;-46
2023/11/27 00:08:28;;;;;;;18.20;11.52;;;;;;;3.96;100.00;100743.50;5132208;27;20163;-47
2023/11/27 00:10:56;;;;;;;22.08;11.30;;;;;;;3.99;100.00;100743.34;5135209;27;20405;-48
2023/11/27 00:13:30;;;;;;;16.60;10.63;;;;;;;3.96;100.00;100736.53;5135202;27;20047;-49
2023/11/27 00:15:58;;;;;;;19.63;10.57;;;;;;;3.93;100.00;100735.78;5136584;27;20071;-48
2023/11/27 00:18:26;;;;;;;16.55;11.20;;;;;;;3.89;100.00;100732.47;5136338;27;20047;-46
2023/11/27 00:20:54;;;;;;;20.40;11.35;;;;;;;3.94;100.00;100727.06;5136193;27;20043;-45
2023/11/27 00:23:23;;;;;;;18.38;11.43;;;;;;;3.93;100.00;100720.16;5135024;27;20051;-48
2023/11/27 00:25:51;;;;;;;19.83;11.05;;;;;;;3.89;100.00;100709.88;5136343;27;20047;-48
2023/11/27 00:28:22;;;;;;;15.05;10.57;;;;;;;3.91;100.00;100715.03;5136248;27;20098;-47
2023/11/27 00:30:52;;;;;;;16.40;11.27;;;;;;;3.94;100.00;100704.53;5136222;27;20051;-48
2023/11/27 00:33:20;;;;;;;19.05;11.70;;;;;;;3.86;100.00;100699.59;5136490;27;20039;-46
2023/11/27 00:35:49;;;;;;;17.92;11.93;;;;;;;3.88;100.00;100696.94;5136258;27;20088;-47
2023/11/27 00:38:17;;;;;;;19.13;11.95;;;;;;;3.86;100.00;100688.38;5133948;27;20409;-50
2023/11/27 00:40:46;;;;;;;19.23;11.90;;;;;;;3.88;100.00;100678.72;5131572;27;20566;-46
2023/11/27 00:43:14;;;;;;;16.08;10.38;;;;;;;3.88;100.00;100676.97;5135089;27;20062;-48
2023/11/27 00:45:44;;;;;;;21.10;11.77;;;;;;;3.92;100.00;100669.88;5134606;27;20047;-48
2023/11/27 00:48:15;;;;;;;19.13;11.60;;;;;;;3.85;100.00;100665.84;5136002;27;20439;-47
2023/11/27 00:50:43;;;;;;;17.80;11.80;;;;;;;3.82;100.00;100666.81;5134657;27;20043;-47
2023/11/27 00:53:11;;;;;;;16.35;11.60;;;;;;;3.85;100.00;100655.44;5135908;27;20096;-48
2023/11/27 00:55:39;;;;;;;18.52;11.27;;;;;;;3.86;100.00;100652.78;5135840;27;20493;-45
2023/11/27 00:58:07;;;;;;;18.80;11.30;;;;;;;3.89;100.00;100642.22;5135705;27;20054;-49
2023/11/27 01:00:35;;;;;;;17.77;10.68;;;;;;;3.91;100.00;100654.34;5135721;27;20459;-48
2023/11/27 01:03:04;;;;;;;21.23;11.27;;;;;;;3.86;100.00;100639.75;5135548;27;20035;-48
2023/11/27 01:05:34;;;;;;;18.23;11.88;;;;;;;3.87;100.00;100638.00;5135420;27;20039;-51
2023/11/27 01:08:02;;;;;;;19.42;11.57;;;;;;;3.88;100.00;100643.13;5135145;27;20079;-47
2023/11/27 01:10:31;;;;;;;19.05;11.02;;;;;;;3.90;100.00;100640.50;5135431;27;20055;-48
2023/11/27 01:12:59;;;;;;;15.65;10.38;;;;;;;3.91;100.00;100633.53;5135637;27;20130;-45
2023/11/27 01:15:27;;;;;;;20.52;11.35;;;;;;;3.93;100.00;100636.91;5133815;27;20050;-47
2023/11/27 01:17:56;;;;;;;17.08;10.82;;;;;;;3.92;100.00;100630.03;5132738;27;20054;-48
2023/11/27 01:20:25;;;;;;;18.73;11.13;;;;;;;3.89;100.00;100629.22;5133469;27;20051;-48
2023/11/27 01:22:57;;;;;;;18.20;12.20;;;;;;;3.92;100.00;100627.41;5134847;27;20114;-49
2023/11/27 01:25:26;;;;;;;18.30;10.32;;;;;;;3.91;100.00;100625.72;5134929;27;20587;-51
2023/11/27 01:27:54;;;;;;;18.40;9.85;;;;;;;3.91;100.00;100618.75;5135043;27;20039;-46
2023/11/27 01:30:22;;;;;;;18.08;10.13;;;;;;;3.93;100.00;100616.94;5135134;27;20150;-47
2023/11/27 01:32:51;;;;;;;15.70;9.77;;;;;;;3.97;100.00;100609.88;5135115;27;20058;-48
2023/11/27 01:35:21;;;;;;;17.85;9.27;;;;;;;3.93;100.00;100605.66;5131825;27;20047;-48
2023/11/27 01:37:49;;;;;;;15.88;9.88;;;;;;;3.97;100.00;100602.06;5132213;27;20111;-49
2023/11/27 01:40:19;;;;;;;18.50;9.82;;;;;;;3.89;100.00;100598.00;5134799;27;20384;-47
2023/11/27 01:42:47;;;;;;;15.27;9.50;;;;;;;3.93;100.00;100592.66;5134871;27;20490;-48
2023/11/27 01:45:15;;;;;;;17.40;9.32;;;;;;;3.96;100.00;100592.56;5134715;27;20035;-49
2023/11/27 01:47:44;;;;;;;15.52;9.30;;;;;;;3.86;100.00;100584.28;5134782;27;20551;-45
2023/11/27 01:50:12;;;;;;;16.60;8.52;;;;;;;3.86;100.00;100582.53;5134621;27;20498;-47
2023/11/27 01:52:41;;;;;;;16.65;8.85;;;;;;;3.87;100.00;100576.41;5134707;27;20051;-48
2023/11/27 01:55:12;;;;;;;14.68;8.57;;;;;;;3.88;100.00;100579.84;5134536;27;20043;-48
2023/11/27 01:57:42;;;;;;;17.08;10.05;;;;;;;3.84;100.00;100560.06;5134391;27;20708;-47
2023/11/27 02:00:12;;;;;;;15.75;8.82;;;;;;;3.86;100.00;100564.31;5134251;27;20121;-47
2023/11/27 02:02:44;;;;;;;16.42;8.38;;;;;;;3.87;100.00;100558.22;5134315;27;20067;-48
2023/11/27 02:05:13;;;;;;;16.27;8.68;;;;;;;3.82;100.00;100552.34;5133011;27;20043;-46
2023/11/27 02:07:42;;;;;;;19.13;9.38;;;;;;;3.87;100.00;100558.22;5131299;27;20581;-47
2023/11/27 02:10:11;;;;;;;17.52;8.23;;;;;;;3.84;100.00;100544.47;5133109;27;20039;-47
2023/11/27 02:12:41;;;;;;;21.92;9.10;;;;;;;3.84;100.00;100547.91;5134201;27;20054;-47
2023/11/27 02:15:11;;;;;;;15.10;9.00;;;;;;;3.82;100.00;100536.72;5134211;27;20047;-45
2023/11/27 02:17:40;;;;;;;14.45;9.05;;;;;;;3.85;100.00;100534.00;5134038;27;20047;-46
2023/11/27 02:20:10;;;;;;;20.33;9.32;;;;;;;3.81;100.00;100534.19;5132168;27;20536;-48
2023/11/27 02:22:38;;;;;;;15.68;8.80;;;;;;;3.73;100.00;100517.13;5130616;27;20533;-46
2023/11/27 02:25:09;;;;;;;14.05;8.23;;;;;;;3.76;100.00;100521.38;5133476;27;20074;-47
2023/11/27 02:27:39;;;;;;;16.27;9.30;;;;;;;3.75;100.00;100511.91;5133770;27;20475;-48
2023/11/27 02:30:08;;;;;;;17.80;9.57;;;;;;;3.76;100.00;100507.53;5133831;27;20506;-49
2023/11/27 02:32:37;;;;;;;18.77;8.93;;;;;;;3.73;100.00;100509.31;5133125;27;20044;-46
2023/11/27 02:35:06;;;;;;;16.98;8.70;;;;;;;3.74;100.00;100499.78;5133888;27;20116;-46
2023/11/27 02:37:34;;;;;;;19.83;9.50;;;;;;;3.75;100.00;100488.47;5133583;27;20035;-48
2023/11/27 02:40:02;;;;;;;17.77;8.93;;;;;;;3.75;100.00;100491.09;5132527;27;20448;-48
2023/11/27 02:42:32;;;;;;;17.92;9.07;;;;;;;3.74;100.00;100476.38;5129614;27;20050;-47
2023/11/27 02:45:00;;;;;;;18.63;8.73;;;;;;;3.72;100.00;100470.38;5131618;27;20043;-49
2023/11/27 02:47:31;;;;;;;20.25;10.15;;;;;;;3.69;100.00;100467.91;5131459;27;20041;-48
2023/11/27 02:49:59;;;;;;;19.48;9.00;;;;;;;3.71;100.00;100466.09;5129833;27;20406;-51
2023/11/27 02:52:27;;;;;;;17.58;8.63;;;;;;;3.65;100.00;100461.16;5132274;27;20054;-51
2023/11/27 02:54:58;;;;;;;19.60;9.52;;;;;;;3.67;100.00;100460.19;5132448;27;20103;-49
2023/11/27 02:57:27;;;;;;;15.65;9.15;;;;;;;3.64;100.00;100449.06;5128868;27;20043;-48
2023/11/27 02:59:57;;;;;;;15.48;9.40;;;;;;;3.60;100.00;100443.16;5130109;27;20509;-50
2023/11/27 03:02:25;;;;;;;17.05;9.25;;;;;;;3.59;100.00;100435.44;5129584;27;20043;-45
2023/11/27 03:04:54;;;;;;;18.13;9.40;;;;;;;3.57;100.00;100432.03;5132720;27;20058;-47
2023/11/27 03:07:23;;;;;;;22.02;10.27;;;;;;;3.54;100.00;100427.81;5133038;27;20130;-47
2023/11/27 03:09:51;;;;;;;16.25;9.88;;;;;;;3.57;100.00;100422.47;5130758;27;20054;-46
2023/11/27 03:12:19;;;;;;;16.55;10.65;;;;;;;3.57;100.00;100419.03;5131689;27;20047;-46
2023/11/27 03:14:48;;;;;;;16.08;9.50;;;;;;;3.55;100.00;100414.72;5131179;27;20047;-48
2023/11/27 03:17:21;;;;;;;22.90;9.68;;;;;;;3.52;100.00;100411.44;5129874;27;20058;-48
2023/11/27 03:19:52;;;;;;;16.48;9.25;;;;;;;3.53;100.00;100402.69;5132958;27;20051;-47
2023/11/27 03:22:20;;;;;;;17.50;10.32;;;;;;;3.55;100.00;100401.72;5132743;27;20122;-47
2023/11/27 03:24:49;;;;;;;16.10;10.07;;;;;;;3.51;100.00;100388.94;5133035;27;20095;-46
2023/11/27 03:27:17;;;;;;;16.83;10.88;;;;;;;3.46;100.00;100383.09;5132836;27;20126;-46
2023/11/27 03:29:46;;;;;;;19.02;10.85;;;;;;;3.52;100.00;100377.63;5132954;27;20047;-47
2023/11/27 03:32:17;;;;;;;18.70;10.03;;;;;;;3.51;100.00;100374.16;5131746;27;20050;-46
2023/11/27 03:34:47;;;;;;;20.73;9.90;;;;;;;3.51;100.00;100365.53;5132769;27;20474;-48
2023/11/27 03:37:15;;;;;;;16.20;9.35;;;;;;;3.45;100.00;100360.59;5132633;27;20043;-46
2023/11/27 03:39:43;;;;;;;15.95;10.35;;;;;;;3.51;100.00;100358.56;5132743;27;20035;-47
2023/11/27 03:42:12;;;;;;;20.80;10.82;;;;;;;3.43;100.00;100350.25;5132571;28;20766;-46
2023/11/27 03:44:40;;;;;;;20.20;10.02;;;;;;;3.44;100.00;100343.31;5134926;27;20074;-46
2023/11/27 03:47:08;;;;;;;17.40;9.75;;;;;;;3.43;100.00;100334.66;5137036;27;20039;-47
2023/11/27 03:49:37;;;;;;;17.65;9.43;;;;;;;3.42;100.00;100329.53;5137018;27;20043;-47
2023/11/27 03:52:07;;;;;;;23.85;10.27;;;;;;;3.38;100.00;100319.28;5136962;27;20051;-47
2023/11/27 03:54:36;;;;;;;15.23;9.50;;;;;;;3.46;100.00;100321.50;5137202;27;20069;-47
2023/11/27 03:57:05;;;;;;;19.30;10.38;;;;;;;3.52;100.00;100321.25;5136916;27;20039;-47
2023/11/27 03:59:33;;;;;;;19.23;10.00;;;;;;;3.40;100.00;100315.75;5137287;27;20047;-49
2023/11/27 04:02:01;;;;;;;16.85;9.13;;;;;;;3.41;100.00;100307.03;5136559;27;20046;-50
2023/11/27 04:04:30;;;;;;;17.83;9.75;;;;;;;3.37;100.00;100306.34;5136526;27;20525;-49
2023/11/27 04:06:58;;;;;;;23.08;9.65;;;;;;;3.38;100.00;100305.41;5133403;27;20062;-46
2023/11/27 04:09:28;;;;;;;18.42;9.40;;;;;;;3.39;100.00;100296.72;5133106;27;20055;-51
2023/11/27 04:11:56;;;;;;;14.27;8.55;;;;;;;3.36;100.00;100287.28;5136594;27;20076;-50
2023/11/27 04:14:25;;;;;;;14.50;8.35;;;;;;;3.39;100.00;100291.50;5136362;27;20035;-49
2023/11/27 04:16:53;;;;;;;16.58;8.38;;;;;;;3.43;100.00;100279.22;5136842;27;20382;-48
2023/11/27 04:19:21;;;;;;;15.05;8.43;;;;;;;3.38;100.00;100271.63;5136349;27;20054;-50
2023/11/27 04:21:50;;;;;;;13.52;7.72;;;;;;;3.42;100.00;100265.38;5136560;27;20051;-51
2023/11/27 04:24:18;;;;;;;14.40;8.43;;;;;;;3.41;100.00;100266.31;5135998;27;20039;-48
2023/11/27 04:26:47;;;;;;;16.98;8.75;;;;;;;3.36;100.00;100258.69;5135515;27;20049;-47
2023/11/27 04:29:15;;;;;;;16.55;8.77;;;;;;;3.34;100.00;100251.88;5132663;27;20489;-48
2023/11/27 04:31:44;;;;;;;14.80;7.85;;;;;;;3.41;100.00;100249.84;5134827;27;20877;-49
2023/11/27 04:34:12;;;;;;;15.88;8.32;;;;;;;3.41;100.00;100234.25;5133761;27;20051;-45
2023/11/27 04:36:40;;;;;;;15.27;8.57;;;;;;;3.33;100.00;100238.03;5133110;27;20450;-48
2023/11/27 04:39:10;;;;;;;15.98;8.40;;;;;;;3.35;100.00;100230.16;5135976;27;20047;-46
2023/11/27 04:41:42;;;;;;;13.23;8.80;;;;;;;3.37;100.00;100234.38;5136249;27;20456;-48
2023/11/27 04:44:12;;;;;;;15.77;8.43;;;;;;;3.33;100.00;100226.81;5133904;27;20043;-49
2023/11/27 04:46:40;;;;;;;16.17;9.13;;;;;;;3.33;100.00;100219.84;5132643;27;20055;-47
2023/11/27 04:49:11;;;;;;;14.77;9.25;;;;;;;3.33;100.00;100221.59;5134995;27;20074;-48
2023/11/27 04:51:39;;;;;;;13.05;8.30;;;;;;;3.32;100.00;100212.13;5135658;27;20041;-48
2023/11/27 04:54:08;;;;;;;13.57;8.13;;;;;;;3.27;100.00;100207.09;5135635;27;20039;-47
2023/11/27 04:56:36;;;;;;;14.30;8.05;;;;;;;3.25;100.00;100206.34;5135042;27;20047;-46
2023/11/27 04:59:04;;;;;;;13.10;9.13;;;;;;;3.28;100.00;100181.97;5135305;27;20043;-47
2023/11/27 05:01:34;;;;;;;15.60;8.45;;;;;;;3.31;100.00;100180.09;5135723;27;20486;-46
2023/11/27 05:04:03;;;;;;;13.43;7.72;;;;;;;3.29;100.00;100178.47;5135565;27;20075;-46
2023/11/27 05:06:31;;;;;;;13.45;8.23;;;;;;;3.25;100.00;100167.34;5135642;27;20138;-47
2023/11/27 05:09:00;;;;;;;14.15;8.27;;;;;;;3.28;100.00;100176.78;5132892;27;20051;-47
2023/11/27 05:11:29;;;;;;;12.43;7.32;;;;;;;3.25;100.00;100166.53;5135649;27;20047;-46
2023/11/27 05:13:57;;;;;;;12.13;7.57;;;;;;;3.26;100.00;100165.59;5135079;27;20074;-48
2023/11/27 05:16:25;;;;;;;12.32;7.13;;;;;;;3.28;100.00;100166.38;5134902;27;20047;-47
2023/11/27 05:18:54;;;;;;;11.20;6.72;;;;;;;3.26;100.00;100163.00;5135324;27;20394;-49
2023/11/27 05:21:23;;;;;;;10.65;6.63;;;;;;;3.24;100.00;100163.06;5135239;27;20047;-47
2023/11/27 05:23:51;;;;;;;10.82;6.38;;;;;;;3.27;100.00;100160.31;5134048;27;20482;-50
2023/11/27 05:26:19;;;;;;;11.10;6.25;;;;;;;3.28;100.00;100153.38;5135182;27;20573;-47
2023/11/27 05:28:47;;;;;;;12.80;6.55;;;;;;;3.27;100.00;100149.94;5135060;27;20051;-49
2023/11/27 05:31:15;;;;;;;9.05;6.07;;;;;;;3.27;100.00;100136.94;5135023;27;20563;-48
2023/11/27 05:33:46;;;;;;;11.77;6.28;;;;;;;3.25;100.00;100138.78;5135023;27;20043;-48
2023/11/27 05:36:15;;;;;;;11.68;6.53;;;;;;;3.22;100.00;100120.72;5134952;27;20666;-47
2023/11/27 05:38:43;;;;;;;9.45;6.20;;;;;;;3.26;100.00;100124.88;5134995;27;20362;-50
2023/11/27 05:41:12;;;;;;;9.32;6.18;;;;;;;3.19;100.00;100126.03;5134678;27;20039;-48
2023/11/27 05:43:40;;;;;;;10.73;6.00;;;;;;;3.15;100.00;100114.97;5134858;27;20067;-49
2023/11/27 05:46:10;;;;;;;10.73;6.03;;;;;;;3.18;100.00;100103.59;5134741;27;20043;-47
2023/11/27 05:48:38;;;;;;;13.30;6.28;;;;;;;3.18;100.00;100101.81;5134815;27;20104;-49
2023/11/27 05:51:07;;;;;;;10.65;6.15;;;;;;;3.22;100.00;100098.16;5134599;27;20501;-47
2023/11/27 05:53:37;;;;;;;9.05;5.32;;;;;;;3.21;100.00;100093.88;5134657;27;20047;-46
2023/11/27 05:56:06;;;;;;;8.93;5.20;;;;;;;3.20;100.00;100088.75;5134373;27;20065;-47
2023/11/27 05:58:34;;;;;;;9.90;6.00;;;;;;;3.19;100.00;100082.72;5133759;27;20054;-48
2023/11/27 06:01:02;;;;;;;10.32;5.63;;;;;;;3.12;100.00;100080.47;5131530;27;20493;-46
2023/11/27 06:03:30;;;;;;;11.25;6.22;;;;;;;3.12;100.00;100075.28;5133004;27;20509;-47
2023/11/27 06:05:58;;;;;;;10.15;6.10;;;;;;;3.11;100.00;100074.44;5134389;27;20043;-46
2023/11/27 06:08:26;;;;;;;10.80;5.97;;;;;;;3.15;100.00;100070.78;5132637;27;20047;-46
2023/11/27 06:10:56;;;;;;;11.13;6.22;;;;;;;3.11;100.00;100058.00;5129708;27;20047;-46
2023/11/27 06:13:24;;;;;;;8.93;5.80;;;;;;;3.13;100.00;100063.97;5132066;27;20452;-45
2023/11/27 06:15:52;;;;;;;10.55;5.97;;;;;;;3.12;100.00;100055.34;5134120;27;20092;-47
2023/11/27 06:18:21;;;;;;;10.38;6.13;;;;;;;3.15;100.00;100055.19;5132736;27;20051;-46
2023/11/27 06:20:49;;;;;;;11.70;5.68;;;;;;;3.13;100.00;100056.19;5118263;27;20051;-47
2023/11/27 06:23:18;;;;;;;11.77;5.78;;;;;;;3.12;100.00;100057.94;5113388;28;20118;-46
2023/11/27 06:25:46;;;;;;;9.10;5.45;;;;;;;3.18;100.00;100049.03;5113279;28;20062;-47
2023/11/27 06:28:16;;;;;;;9.40;5.47;;;;;;;3.15;100.00;100051.75;5113596;28;20050;-47
2023/11/27 06:30:45;;;;;;;9.88;5.50;;;;;;;3.14;100.00;100039.69;5112380;28;20048;-46
2023/11/27 06:33:13;;;;;;;10.80;5.43;;;;;;;3.11;100.00;100040.66;5110577;28;20379;-49
2023/11/27 06:35:41;;;;;;;9.52;5.80;;;;;;;3.09;100.00;100036.44;5112452;28;20056;-48
2023/11/27 06:38:09;;;;;;;9.32;5.68;;;;;;;3.13;100.00;100032.78;5109940;28;20555;-47
2023/11/27 06:40:38;;;;;;;9.07;5.35;;;;;;;3.09;100.00;100026.88;5106888;28;20124;-48
2023/11/27 06:43:16;;;;;;;8.65;5.03;;;;;;;3.11;100.00;100016.41;5109069;28;20071;-47
2023/11/27 06:45:45;;;;;;;8.05;5.03;;;;;;;3.12;100.00;100018.13;5112497;28;20047;-46
2023/11/27 06:48:13;;;;;;;7.53;4.50;;;;;;;3.15;100.00;100015.34;5109704;28;20055;-47
2023/11/27 06:50:41;;;;;;;9.05;4.95;;;;;;;3.14;100.00;100001.53;5110597;28;20081;-48
2023/11/27 06:53:10;;;;;;;9.65;4.90;;;;;;;3.16;100.00;99998.88;5112769;28;20047;-50
2023/11/27 06:55:38;;;;;;;9.65;5.65;;;;;;;3.14;100.00;99998.94;5112896;28;20050;-50
2023/11/27 06:58:07;;;;;;;8.38;5.10;;;;;;;3.13;100.00;99992.06;5112919;28;20043;-46
2023/11/27 07:00:37;;;;;;;7.65;4.55;;;;;;;3.12;100.00;99985.19;5112616;28;20126;-47
2023/11/27 07:03:05;;;;;;;7.00;4.40;;;;;;;3.14;100.00;99979.91;5112782;28;20050;-47
2023/11/27 07:05:34;;;;;;;6.82;4.20;;;;;;;3.13;100.00;99981.66;5112377;28;20127;-48
2023/11/27 07:08:03;;;;;;;7.32;3.97;;;;;;;3.11;100.00;99974.84;5112609;28;20100;-49
2023/11/27 07:10:32;;;;;;;8.20;3.92;;;;;;;3.12;100.00;99977.41;5112593;28;20429;-50
2023/11/27 07:13:01;;;;;;;7.68;4.25;;;;;;;3.10;100.00;99968.81;5094466;28;20650;-49
2023/11/27 07:15:29;;;;;;;8.80;4.32;;;;;;;3.12;100.00;99967.00;5094360;28;20040;-49
2023/11/27 07:17:59;;;;;;;7.50;4.00;;;;;;;3.05;100.00;99952.59;5112514;28;20047;-48
2023/11/27 07:20:45;;;;;;;6.90;4.10;;;;;;;3.01;100.00;99951.94;5112322;28;20039;-45
2023/11/27 07:23:14;;;;;;;8.70;4.13;;;;;;;3.08;100.00;99943.81;5112294;28;20070;-45
2023/11/27 07:25:43;;;;;;;8.68;4.30;;;;;;;3.00;100.00;99933.78;5112252;28;20405;-47
2023/11/27 07:28:12;;;;;;;7.35;3.85;;;;;;;3.01;100.00;99923.34;5112295;28;20062;-46
2023/11/27 07:30:41;;;;;;;9.15;4.40;;;;;;;2.99;100.00;99919.16;5112215;28;20059;-47
2023/11/27 07:33:10;;;;;;;7.72;3.72;;;;;;;3.00;100.00;99915.59;5093520;28;20059;-49
2023/11/27 07:35:39;;;;;;;7.65;4.50;;;;;;;3.00;100.00;99913.00;5111930;28;20047;-47
2023/11/27 07:38:08;;;;;;;8.55;4.32;;;;;;;3.09;100.00;99911.75;5112263;28;20482;-46
2023/11/27 07:40:36;;;;;;;8.27;4.43;;;;;;;3.01;100.00;99902.56;5112145;28;20126;-48
2023/11/27 07:43:10;;;;;;;7.45;4.30;;;;;;;3.01;100.00;99897.38;5112453;28;20047;-50
2023/11/27 07:45:39;;;;;;;6.18;3.63;;;;;;;3.00;100.00;99905.22;5112360;28;20047;-48
2023/11/27 07:48:22;;;;;;;7.22;4.13;;;;;;;2.95;100.00;99900.25;5112067;28;20452;-47
2023/11/27 07:50:51;;;;;;;8.10;3.65;;;;;;;2.90;100.00;99891.84;5112057;28;20051;-47
2023/11/27 07:53:20;;;;;;;7.63;3.85;;;;;;;2.95;100.00;99886.44;5112023;28;20382;-47
2023/11/27 07:55:48;;;;;;;6.38;3.58;;;;;;;2.91;100.00;99888.34;5112064;28;20044;-45
2023/11/27 07:58:17;;;;;;;7.25;4.00;;;;;;;2.97;100.00;99889.78;5093823;28;20410;-47
2023/11/27 08:00:50;;;;;;;7.43;3.70;;;;;;;2.99;100.00;99886.19;5111967;28;20081;-46
2023/11/27 08:03:18;;;;;;;6.55;3.65;;;;;;;3.01;100.00;99883.53;5111742;28;20406;-47
2023/11/27 08:05:47;;;;;;;7.32;3.83;;;;;;;3.03;100.00;99877.34;5111597;28;20054;-45
2023/11/27 08:08:18;;;;;;;7.00;3.85;;;;;;;3.05;100.00;99866.88;5113976;28;20039;-46
2023/11/27 08:10:49;;;;;;;7.43;4.07;;;;;;;2.99;100.00;99864.59;5114112;28;20043;-47
2023/11/27 08:13:17;;;;;;;8.45;4.07;;;;;;;2.97;100.00;99856.03;5132689;28;20497;-45
2023/11/27 08:15:47;;;;;;;8.23;3.92;;;;;;;3.02;100.00;99848.84;5132222;28;20142;-48
2023/11/27 08:18:15;;;;;;;10.07;4.75;;;;;;;3.01;100.00;99847.16;5132471;28;20561;-47
2023/11/27 08:20:43;;;;;;;7.55;4.07;;;;;;;3.00;100.00;99848.06;5132509;28;20479;-46
2023/11/27 08:23:13;;;;;;;8.75;4.45;;;;;;;2.95;100.00;99831.88;5132340;28;20043;-48
2023/11/27 08:25:44;;;;;;;7.70;4.28;;;;;;;3.02;100.00;99834.09;5132562;28;20051;-49
2023/11/27 08:28:13;;;;;;;7.55;4.22;;;;;;;2.99;100.00;99825.63;5132216;28;20093;-47
2023/11/27 08:30:41;;;;;;;6.88;4.10;;;;;;;3.00;100.00;99829.88;5132749;27;20123;-50
2023/11/27 08:33:10;;;;;;;7.60;4.40;;;;;;;3.00;100.00;99827.28;5136031;27;20043;-50
2023/11/27 08:35:38;;;;;;;7.00;4.05;;;;;;;3.01;100.00;99818.59;5136286;27;20077;-49
2023/11/27 08:38:06;;;;;;;6.75;4.20;;;;;;;3.04;100.00;99823.63;5136106;27;20055;-49
2023/11/27 08:40:37;;;;;;;7.15;4.40;;;;;;;3.00;100.00;99814.28;5135917;27;20542;-45
2023/11/27 08:43:05;;;;;;;8.98;4.47;;;;;;;2.99;100.00;99810.03;5136000;27;20111;-53
2023/11/27 08:45:33;;;;;;;7.88;4.40;;;;;;;3.01;100.00;99805.59;5135883;27;20563;-51
2023/11/27 08:48:03;;;;;;;9.15;4.30;;;;;;;3.03;100.00;99801.19;5134018;27;20043;-52
2023/11/27 08:50:36;;;;;;;;;;;;;;;3.08;100.00;99788.81;5132941;27;20054;-51
2023/11/27 08:53:07;;;;;;;7.32;3.75;;;;;;;3.10;100.00;99793.91;5132728;27;19919;-53
2023/11/27 08:55:37;;;;;;;6.72;4.10;;;;;;;3.07;100.00;99794.03;5117423;27;20071;-51
2023/11/27 08:58:06;;;;;;;8.13;4.00;;;;;;;3.12;100.00;99782.53;5134908;27;20047;-49
2023/11/27 09:00:35;;;;;;;8.15;4.15;;;;;;;3.09;100.00;99782.66;5132620;27;20051;-53
2023/11/27 09:03:05;;;;;;;6.72;3.67;;;;;;;3.07;100.00;99779.31;5134417;27;20517;-52
2023/11/27 09:05:33;;;;;;;7.70;4.60;;;;;;;3.09;100.00;99776.63;5135527;27;20035;-53
2023/11/27 09:08:05;;;;;;;6.43;3.72;;;;;;;3.12;100.00;99774.72;5132596;27;20047;-53
2023/11/27 09:10:42;;;;;;;8.07;4.10;;;;;;;3.15;100.00;99769.38;5131505;27;20050;-52
2023/11/27 09:13:12;;;;;;;6.47;3.85;;;;;;;3.16;100.00;99775.41;5115656;27;20046;-52
2023/11/27 09:15:41;;;;;;;5.55;3.40;;;;;;;3.15;100.00;99766.78;5135364;27;20058;-53
2023/11/27 09:18:09;;;;;;;6.68;4.05;;;;;;;3.10;100.00;99758.38;5132077;27;20134;-52
2023/11/27 09:20:38;;;;;;;8.27;3.88;;;;;;;3.08;100.00;99765.41;5132719;27;20051;-51
2023/11/27 09:23:06;;;;;;;8.20;4.35;;;;;;;3.15;100.00;99756.38;5135211;27;20035;-50
2023/11/27 09:25:34;;;;;;;6.50;3.75;;;;;;;3.20;100.00;99757.00;5135036;27;20047;-50
2023/11/27 09:28:05;;;;;;;5.88;3.55;;;;;;;3.17;100.00;99754.53;5132574;27;20055;-54
2023/11/27 09:30:34;;;;;;;7.45;4.22;;;;;;;3.24;100.00;99736.84;5131566;27;20050;-53
2023/11/27 09:33:04;;;;;;;6.57;4.40;;;;;;;3.25;100.00;99737.72;5134160;27;20042;-50
2023/11/27 09:35:32;;;;;;;6.68;4.28;;;;;;;3.18;100.00;99738.03;5131664;27;20047;-52
2023/11/27 09:38:00;;;;;;;6.38;3.78;;;;;;;3.25;100.00;99724.72;5113422;27;20058;-52
2023/11/27 09:40:38;;;;;;;7.53;4.20;;;;;;;3.22;100.00;99721.34;5130344;27;20035;-49
2023/11/27 09:43:07;;;;;;;10.32;4.00;;;;;;;3.22;100.00;99712.72;5131502;27;20074;-52
2023/11/27 09:45:36;;;;;;;5.95;3.70;;;;;;;3.26;100.00;99716.84;5134330;27;20100;-51
2023/11/27 09:48:10;;;;;;;8.07;4.35;;;;;;;3.29;100.00;99708.06;5113128;27;20581;-51
2023/11/27 09:50:45;;;;;;;7.80;4.05;;;;;;;3.25;100.00;99709.13;5131506;27;20044;-50
2023/11/27 09:53:19;;;;;;;6.05;3.60;;;;;;;3.26;100.00;99703.00;5130547;27;20051;-53
2023/11/27 09:55:52;;;;;;;7.63;3.78;;;;;;;3.31;100.00;99696.66;5116124;27;20047;-54
2023/11/27 09:58:24;;;;;;;8.55;4.43;;;;;;;3.35;100.00;99695.56;5133408;27;20486;-54
2023/11/27 10:00:54;;;;;;;5.85;3.95;;;;;;;3.33;100.00;99687.00;5130882;27;20815;-54
2023/11/27 10:03:24;;;;;;;7.18;4.20;;;;;;;3.37;100.00;99685.09;5133169;27;20053;-55
2023/11/27 10:05:54;;;;;;;6.65;4.18;;;;;;;3.41;100.00;99688.34;5134264;27;20178;-53
2023/11/27 10:08:23;;;;;;;7.60;4.25;;;;;;;3.41;100.00;99678.81;5130313;27;20050;-54
2023/11/27 10:10:52;;;;;;;7.13;3.97;;;;;;;3.40;100.00;99674.53;5126047;27;20126;-52
2023/11/27 10:13:34;;;;;;;6.22;3.80;;;;;;;3.40;100.00;99671.09;5134072;27;20039;-53
2023/11/27 10:16:23;;;;;;;9.25;4.32;;;;;;;3.42;100.00;99654.47;5112502;27;20433;-51
2023/11/27 10:19:03;;;;;;;7.45;4.70;;;;;;;3.39;100.00;99649.44;5130295;27;20050;-53
2023/11/27 10:21:31;;;;;;;7.38;4.63;;;;;;;3.44;100.00;99649.22;5131246;27;20135;-52
2023/11/27 10:24:01;;;;;;;7.38;4.78;;;;;;;3.43;100.00;99632.75;5133970;27;20426;-54
2023/11/27 10:26:30;;;;;;;7.22;4.45;;;;;;;3.47;100.00;99633.44;5133943;27;20122;-53
2023/11/27 10:29:00;;;;;;;6.95;4.30;;;;;;;3.46;100.00;99629.16;5133932;27;20120;-53
2023/11/27 10:31:30;;;;;;;7.57;4.50;;;;;;;3.48;100.00;99617.75;5111042;27;20047;-52
2023/11/27 10:33:59;;;;;;;6.65;4.28;;;;;;;3.49;100.00;99611.63;5111464;27;20055;-52
2023/11/27 10:36:27;;;;;;;6.38;4.22;;;;;;;3.53;100.00;99612.28;5129714;27;20047;-52
2023/11/27 10:39:04;;;;;;;7.32;4.50;;;;;;;3.54;100.00;99606.16;5132160;27;20486;-53
2023/11/27 10:41:32;;;;;;;7.25;4.20;;;;;;;3.53;100.00;99594.94;5128347;27;20050;-52
2023/11/27 10:44:04;;;;;;;7.45;4.30;;;;;;;3.58;100.00;99589.47;5130447;27;20047;-50
2023/11/27 10:46:35;;;;;;;6.97;4.20;;;;;;;3.61;100.00;99584.09;5133625;27;20098;-53
2023/11/27 10:49:07;;;;;;;6.80;4.45;;;;;;;3.62;100.00;99582.34;5131643;27;20151;-54
2023/11/27 10:51:36;;;;;;;7.28;4.60;;;;;;;3.68;100.00;99568.97;5129769;27;20043;-53
2023/11/27 10:54:06;;;;;;;7.35;4.22;;;;;;;3.70;100.00;99578.38;5128842;27;20058;-50
2023/11/27 10:56:36;;;;;;;8.07;4.60;;;;;;;3.65;100.00;99583.00;5127866;27;20043;-53
2023/11/27 10:59:05;;;;;;;6.88;4.20;;;;;;;3.68;100.00;99579.38;5129136;27;20514;-50
2023/11/27 11:01:39;;;;;;;7.53;4.55;;;;;;;3.69;100.00;99581.06;5129904;27;20508;-51
2023/11/27 11:04:16;;;;;;;7.50;5.03;;;;;;;3.75;100.00;99572.06;5131555;27;20065;-53
2023/11/27 11:06:47;;;;;;;8.38;4.78;;;;;;;3.75;100.00;99561.69;5133187;27;20794;-52
2023/11/27 11:09:16;;;;;;;7.90;4.93;;;;;;;3.82;100.00;99550.84;5133032;27;20417;-52
2023/11/27 11:11:49;;;;;;;7.82;4.85;;;;;;;3.86;100.00;99548.91;5130333;27;20049;-53
2023/11/27 11:14:24;;;;;;;7.30;4.93;;;;;;;3.85;100.00;99557.63;5128486;27;20043;-54
2023/11/27 11:17:07;;;;;;;8.02;4.78;;;;;;;3.79;100.00;99557.97;5110610;27;20063;-53
2023/11/27 11:19:42;;;;;;;9.30;4.95;;;;;;;3.80;100.00;99550.06;5131515;27;20043;-54
2023/11/27 11:22:24;;;;;;;6.90;4.50;;;;;;;3.84;100.00;99538.56;5128268;27;20137;-51
2023/11/27 11:25:08;;;;;;;8.10;4.60;;;;;;;3.89;100.00;99536.53;5131252;27;20051;-53
2023/11/27 11:27:44;;;;;;;8.52;4.90;;;;;;;3.94;100.00;99530.25;5127979;27;20153;-49
2023/11/27 11:30:15;;;;;;;6.95;4.47;;;;;;;3.94;100.00;99527.63;5128017;27;20058;-53
2023/11/27 11:32:44;;;;;;;8.32;4.95;;;;;;;3.94;100.00;99512.03;5128642;27;20058;-53